Time;durP1;ratioP1;P1;durP2;ratioP2;P2;SDS_P1;SDS_P2;PMS_P1;PMS_P2;Temp;Humidity;BMP_temperature;BMP_pressure;BME280_temperature;BME280_humidity;BME280_pressure;Samples;Min_cycle;Max_cycle;Signal;HPM_P1;HPM_P2
2023/08/24 00:01:14;;;;;;;3.80;2.42;;;15.90;99.90;;;;;;5081435;28;20099;-58
2023/08/24 00:03:40;;;;;;;3.50;2.30;;;15.80;99.90;;;;;;5101336;28;20092;-57
2023/08/24 00:06:06;;;;;;;2.65;2.30;;;15.80;99.90;;;;;;5083158;28;20032;-59
2023/08/24 00:08:32;;;;;;;2.38;2.17;;;15.70;99.90;;;;;;5103434;28;20047;-59
2023/08/24 00:10:58;;;;;;;2.63;2.42;;;15.70;99.90;;;;;;5102539;28;20046;-60
2023/08/24 00:13:24;;;;;;;3.00;2.30;;;15.60;99.90;;;;;;5099102;28;20047;-59
2023/08/24 00:15:49;;;;;;;5.18;2.88;;;15.60;99.90;;;;;;5100266;28;20069;-59
2023/08/24 00:18:18;;;;;;;3.25;2.95;;;15.60;99.90;;;;;;5101180;28;20159;-60
2023/08/24 00:20:43;;;;;;;3.75;2.85;;;15.60;99.90;;;;;;5101763;28;20054;-60
2023/08/24 00:23:09;;;;;;;3.42;3.10;;;15.60;99.90;;;;;;5099271;28;20040;-60
2023/08/24 00:25:35;;;;;;;4.20;3.22;;;15.60;99.90;;;;;;5099126;28;20036;-60
2023/08/24 00:28:01;;;;;;;6.35;3.67;;;15.60;99.90;;;;;;5087010;28;20054;-60
2023/08/24 00:30:27;;;;;;;6.13;4.22;;;15.60;99.90;;;;;;5101006;28;20742;-57
2023/08/24 00:32:52;;;;;;;6.25;4.10;;;15.60;99.90;;;;;;5100791;28;20049;-58
2023/08/24 00:35:18;;;;;;;5.35;3.97;;;15.60;99.90;;;;;;5100109;28;20047;-59
2023/08/24 00:37:44;;;;;;;5.90;4.20;;;15.60;99.90;;;;;;5080305;28;20044;-60
2023/08/24 00:40:09;;;;;;;4.13;3.40;;;15.60;99.90;;;;;;5099707;28;20109;-61
2023/08/24 00:42:39;;;;;;;5.47;2.92;;;15.60;99.90;;;;;;5099437;28;20032;-60
2023/08/24 00:45:05;;;;;;;3.05;2.28;;;15.60;99.90;;;;;;5081327;28;20157;-60
2023/08/24 00:47:32;;;;;;;3.05;2.45;;;15.60;99.90;;;;;;5098522;28;20058;-59
2023/08/24 00:50:00;;;;;;;3.22;2.53;;;15.50;99.90;;;;;;5099517;28;20076;-60
2023/08/24 00:52:28;;;;;;;5.38;2.95;;;15.50;99.90;;;;;;5081596;28;20052;-60
2023/08/24 00:54:55;;;;;;;5.18;2.55;;;15.50;99.90;;;;;;5097279;28;21062;-57
2023/08/24 00:57:21;;;;;;;6.20;2.97;;;15.50;99.90;;;;;;5098531;27;20075;-60
2023/08/24 00:59:48;;;;;;;3.58;2.67;;;15.50;99.90;;;;;;5098115;28;20047;-60
2023/08/24 01:02:14;;;;;;;4.70;2.97;;;15.50;99.90;;;;;;5098817;28;20036;-60
2023/08/24 01:04:42;;;;;;;5.38;2.85;;;15.50;99.90;;;;;;5091142;28;20035;-58
2023/08/24 01:07:09;;;;;;;5.25;3.20;;;15.60;99.90;;;;;;5099497;28;20036;-57
2023/08/24 01:09:35;;;;;;;4.13;2.90;;;15.60;99.90;;;;;;5099549;28;20062;-60
2023/08/24 01:12:41;;;;;;;3.28;2.97;;;15.60;99.90;;;;;;5098506;28;20178;-58
2023/08/24 01:15:28;;;;;;;3.95;2.58;;;15.60;99.90;;;;;;5077780;28;20071;-60
2023/08/24 01:17:59;;;;;;;5.25;2.65;;;15.70;99.90;;;;;;5099367;28;20086;-60
2023/08/24 01:20:26;;;;;;;2.47;2.10;;;15.70;99.90;;;;;;5097308;28;20035;-60
2023/08/24 01:23:03;;;;;;;2.45;2.00;;;15.70;99.90;;;;;;5095998;28;20391;-60
2023/08/24 01:25:42;;;;;;;4.38;2.20;;;15.70;99.90;;;;;;5098821;28;20120;-60
2023/08/24 01:28:11;;;;;;;2.35;2.00;;;15.60;99.90;;;;;;5099259;28;20035;-58
2023/08/24 01:30:37;;;;;;;2.85;2.30;;;15.60;99.90;;;;;;5100764;28;20078;-60
2023/08/24 01:33:04;;;;;;;4.20;2.40;;;15.70;99.90;;;;;;5101401;28;20363;-57
2023/08/24 01:35:30;;;;;;;4.60;2.38;;;15.70;99.90;;;;;;5102563;28;20050;-59
2023/08/24 01:37:57;;;;;;;3.40;2.30;;;15.70;99.90;;;;;;5099163;28;20040;-59
2023/08/24 01:40:43;;;;;;;4.60;2.70;;;15.70;99.90;;;;;;5070864;28;20043;-59
2023/08/24 01:43:12;;;;;;;4.57;3.28;;;15.70;99.90;;;;;;5100111;28;20390;-60
2023/08/24 01:45:40;;;;;;;5.45;2.63;;;15.70;99.90;;;;;;5079412;28;20506;-60
2023/08/24 01:48:06;;;;;;;5.85;3.30;;;15.70;99.90;;;;;;5101695;28;20044;-58
2023/08/24 01:50:33;;;;;;;4.57;3.00;;;15.70;99.90;;;;;;5101477;28;20070;-60
2023/08/24 01:52:59;;;;;;;7.25;3.60;;;15.70;99.90;;;;;;5103362;28;20056;-60
2023/08/24 01:55:25;;;;;;;7.07;3.30;;;15.70;99.90;;;;;;5102856;28;20047;-60
2023/08/24 01:57:51;;;;;;;9.77;4.70;;;15.80;99.90;;;;;;5084405;28;20374;-57
2023/08/24 02:00:16;;;;;;;6.68;4.60;;;15.80;99.90;;;;;;5099393;28;20176;-57
2023/08/24 02:02:44;;;;;;;5.10;4.20;;;15.80;99.90;;;;;;5100204;28;20047;-60
2023/08/24 02:05:09;;;;;;;6.65;4.45;;;15.80;99.90;;;;;;5083614;28;20489;-59
2023/08/24 02:07:35;;;;;;;7.97;4.65;;;15.80;99.90;;;;;;5103974;28;20477;-60
2023/08/24 02:10:02;;;;;;;7.93;3.80;;;15.80;99.90;;;;;;5104692;28;20122;-58
2023/08/24 02:12:27;;;;;;;10.43;5.22;;;15.80;99.90;;;;;;5090473;28;20653;-58
2023/08/24 02:14:53;;;;;;;6.05;4.40;;;15.80;99.90;;;;;;5101430;28;20054;-60
2023/08/24 02:17:19;;;;;;;8.50;4.68;;;15.90;99.90;;;;;;5103995;28;20047;-59
2023/08/24 02:19:44;;;;;;;7.78;3.85;;;15.90;99.90;;;;;;5070988;28;20044;-61
2023/08/24 02:22:10;;;;;;;6.60;3.65;;;15.90;99.90;;;;;;5103184;28;20032;-54
2023/08/24 02:24:36;;;;;;;7.53;3.22;;;15.90;99.90;;;;;;5105556;28;20118;-56
2023/08/24 02:27:01;;;;;;;7.18;3.10;;;15.90;99.90;;;;;;5104041;28;20413;-57
2023/08/24 02:29:27;;;;;;;7.80;2.95;;;15.90;99.90;;;;;;5102910;28;20166;-61
2023/08/24 02:31:53;;;;;;;5.00;3.10;;;15.90;99.90;;;;;;5105519;28;20048;-58
2023/08/24 02:34:19;;;;;;;3.65;2.75;;;15.90;99.90;;;;;;5105529;28;20305;-59
2023/08/24 02:36:44;;;;;;;6.05;2.80;;;15.90;99.90;;;;;;5106859;28;20511;-59
2023/08/24 02:39:10;;;;;;;2.88;2.58;;;15.90;99.90;;;;;;5105298;28;20402;-59
2023/08/24 02:41:36;;;;;;;3.40;2.90;;;15.90;99.90;;;;;;5106089;28;20024;-60
2023/08/24 02:44:02;;;;;;;5.05;3.10;;;15.90;99.90;;;;;;5103213;28;20039;-57
2023/08/24 02:46:29;;;;;;;7.32;3.80;;;15.90;99.90;;;;;;5104570;28;20082;-60
2023/08/24 02:48:55;;;;;;;5.32;3.72;;;15.90;99.90;;;;;;5105464;28;20050;-59
2023/08/24 02:51:24;;;;;;;7.40;4.00;;;15.90;99.90;;;;;;5105500;28;20036;-60
2023/08/24 02:53:50;;;;;;;6.10;4.25;;;16.00;99.90;;;;;;5103996;28;20078;-60
2023/08/24 02:56:16;;;;;;;4.97;3.92;;;16.00;99.90;;;;;;5103873;27;20161;-59
2023/08/24 02:58:41;;;;;;;7.63;4.25;;;16.00;99.90;;;;;;5105856;28;20068;-59
2023/08/24 03:01:08;;;;;;;6.60;3.92;;;16.00;99.90;;;;;;5103719;28;20440;-58
2023/08/24 03:03:35;;;;;;;8.88;4.50;;;16.00;99.90;;;;;;5104465;28;20043;-61
2023/08/24 03:06:03;;;;;;;6.25;4.38;;;16.10;99.90;;;;;;5104809;28;20043;-59
2023/08/24 03:08:30;;;;;;;6.93;4.18;;;16.10;99.90;;;;;;5086106;28;20039;-60
2023/08/24 03:10:56;;;;;;;6.50;4.00;;;16.10;99.90;;;;;;5103212;28;20531;-60
2023/08/24 03:13:22;;;;;;;6.32;3.97;;;16.10;99.90;;;;;;5101278;28;20044;-59
2023/08/24 03:15:48;;;;;;;7.05;4.35;;;16.10;99.90;;;;;;5101180;28;20039;-59
2023/08/24 03:18:16;;;;;;;9.27;4.75;;;16.10;99.90;;;;;;5103809;28;20035;-60
2023/08/24 03:20:41;;;;;;;8.48;4.05;;;16.10;99.90;;;;;;5100187;28;20040;-59
2023/08/24 03:23:07;;;;;;;8.07;4.53;;;16.10;99.90;;;;;;5102515;28;20028;-59
2023/08/24 03:25:38;;;;;;;5.80;3.80;;;16.10;99.90;;;;;;5103572;28;20044;-59
2023/08/24 03:28:05;;;;;;;7.68;4.13;;;16.10;99.90;;;;;;5075504;28;20040;-60
2023/08/24 03:30:31;;;;;;;6.15;4.22;;;16.10;99.90;;;;;;5103202;28;20063;-60
2023/08/24 03:32:58;;;;;;;7.18;4.15;;;16.00;99.90;;;;;;5103633;28;20067;-58
2023/08/24 03:35:24;;;;;;;6.82;4.43;;;16.10;99.90;;;;;;5102755;28;20118;-60
2023/08/24 03:37:49;;;;;;;7.47;4.45;;;16.00;99.90;;;;;;5102744;28;20113;-60
2023/08/24 03:40:15;;;;;;;6.35;4.82;;;16.00;99.90;;;;;;5103890;28;20035;-60
2023/08/24 03:42:42;;;;;;;9.57;4.97;;;16.00;99.90;;;;;;5086253;28;20374;-60
2023/08/24 03:45:08;;;;;;;5.63;4.22;;;16.00;99.90;;;;;;5101975;28;20043;-59
2023/08/24 03:47:34;;;;;;;6.78;4.68;;;16.00;99.90;;;;;;5103693;28;20043;-60
2023/08/24 03:50:00;;;;;;;9.25;5.53;;;15.90;99.90;;;;;;5086954;28;20046;-58
2023/08/24 03:52:25;;;;;;;7.47;4.80;;;16.00;99.90;;;;;;5103456;28;20060;-59
2023/08/24 03:54:51;;;;;;;6.75;4.75;;;16.00;99.90;;;;;;5104050;28;20095;-58
2023/08/24 03:57:17;;;;;;;7.93;5.03;;;16.00;99.90;;;;;;5104802;27;20028;-60
2023/08/24 03:59:42;;;;;;;8.15;4.88;;;16.00;99.90;;;;;;5084650;28;20043;-57
2023/08/24 04:02:08;;;;;;;9.95;4.55;;;16.00;99.90;;;;;;5104693;28;20056;-59
2023/08/24 04:04:34;;;;;;;10.98;5.97;;;16.00;99.90;;;;;;5104816;28;20044;-59
2023/08/24 04:07:00;;;;;;;8.82;5.13;;;16.00;99.90;;;;;;5085832;28;20051;-60
2023/08/24 04:09:26;;;;;;;7.47;4.20;;;16.00;99.90;;;;;;5102344;28;20116;-60
2023/08/24 04:11:51;;;;;;;7.07;4.95;;;16.00;99.90;;;;;;5102934;28;20047;-60
2023/08/24 04:14:17;;;;;;;7.97;5.28;;;16.00;99.90;;;;;;5103525;28;20040;-57
2023/08/24 04:16:43;;;;;;;8.23;5.43;;;16.00;99.90;;;;;;5104791;28;20086;-60
2023/08/24 04:19:08;;;;;;;11.40;5.70;;;16.00;99.90;;;;;;5104127;28;20566;-59
2023/08/24 04:21:34;;;;;;;7.72;5.53;;;16.00;99.90;;;;;;5102485;28;20057;-58
2023/08/24 04:24:00;;;;;;;8.10;4.60;;;16.00;99.90;;;;;;5067380;28;20036;-59
2023/08/24 04:26:26;;;;;;;7.13;4.88;;;16.00;99.90;;;;;;5102700;28;20058;-59
2023/08/24 04:28:51;;;;;;;10.10;4.93;;;16.00;99.90;;;;;;5103667;28;20036;-60
2023/08/24 04:31:17;;;;;;;12.00;5.55;;;15.90;99.90;;;;;;5102486;28;20043;-60
2023/08/24 04:33:43;;;;;;;6.07;4.72;;;15.90;99.90;;;;;;5101029;28;20039;-59
2023/08/24 04:36:09;;;;;;;8.68;4.57;;;15.90;99.90;;;;;;5102510;28;20040;-60
2023/08/24 04:38:34;;;;;;;7.57;4.38;;;15.90;99.90;;;;;;5103352;28;20031;-60
2023/08/24 04:41:00;;;;;;;6.95;4.90;;;15.90;99.90;;;;;;5086377;28;20036;-58
2023/08/24 04:43:26;;;;;;;8.10;5.22;;;15.90;99.90;;;;;;5103933;28;20032;-60
2023/08/24 04:45:54;;;;;;;7.72;4.57;;;15.90;99.90;;;;;;5099723;28;20137;-60
2023/08/24 04:48:24;;;;;;;7.85;4.28;;;15.90;99.90;;;;;;5103018;28;20067;-60
2023/08/24 04:50:50;;;;;;;6.40;3.92;;;15.90;99.90;;;;;;5082904;28;20452;-59
2023/08/24 04:53:18;;;;;;;5.47;4.15;;;15.90;99.90;;;;;;5100347;28;20497;-60
2023/08/24 04:55:44;;;;;;;6.32;3.67;;;15.90;99.90;;;;;;5101587;28;20063;-60
2023/08/24 04:58:12;;;;;;;8.45;3.75;;;15.90;99.90;;;;;;5102142;28;20036;-61
2023/08/24 05:00:37;;;;;;;8.88;4.40;;;15.90;99.90;;;;;;5099618;28;20036;-61
2023/08/24 05:03:07;;;;;;;6.90;4.80;;;15.80;99.90;;;;;;5102266;28;20038;-60
2023/08/24 05:05:34;;;;;;;10.15;4.70;;;15.90;99.90;;;;;;5102066;28;20031;-60
2023/08/24 05:08:01;;;;;;;9.90;5.13;;;15.90;99.90;;;;;;5101301;28;20031;-60
2023/08/24 05:10:31;;;;;;;9.77;4.80;;;15.90;99.90;;;;;;5090522;28;20104;-61
2023/08/24 05:12:56;;;;;;;11.13;5.47;;;15.90;99.90;;;;;;5100543;28;20055;-60
2023/08/24 05:15:22;;;;;;;12.60;4.60;;;16.00;99.90;;;;;;5100268;28;20051;-59
2023/08/24 05:17:48;;;;;;;7.78;4.20;;;16.00;99.90;;;;;;5100690;28;20047;-59
2023/08/24 05:20:14;;;;;;;12.27;5.20;;;16.00;99.90;;;;;;5101267;28;20032;-58
2023/08/24 05:22:40;;;;;;;10.68;5.28;;;16.00;99.90;;;;;;5101741;28;20502;-60
2023/08/24 05:25:06;;;;;;;10.65;4.63;;;16.00;99.90;;;;;;5100631;28;20091;-60
2023/08/24 05:27:32;;;;;;;9.95;5.35;;;16.10;99.90;;;;;;5100094;28;20039;-58
2023/08/24 05:29:58;;;;;;;11.27;5.18;;;16.10;99.90;;;;;;5099916;28;20086;-59
2023/08/24 05:32:24;;;;;;;11.70;5.00;;;16.10;99.90;;;;;;5099171;28;20036;-60
2023/08/24 05:34:50;;;;;;;9.75;5.30;;;16.10;99.90;;;;;;5082643;28;20028;-60
2023/08/24 05:37:16;;;;;;;11.65;5.55;;;16.20;99.90;;;;;;5099320;28;20043;-60
2023/08/24 05:39:42;;;;;;;11.05;5.70;;;16.20;99.90;;;;;;5098565;28;20085;-60
2023/08/24 05:42:08;;;;;;;14.02;5.68;;;16.20;99.90;;;;;;5084012;28;20047;-60
2023/08/24 05:44:34;;;;;;;13.60;5.57;;;16.30;99.90;;;;;;5104483;28;20382;-59
2023/08/24 05:47:00;;;;;;;11.15;5.45;;;16.30;99.90;;;;;;5108271;28;20056;-60
2023/08/24 05:49:26;;;;;;;13.27;5.57;;;16.40;99.90;;;;;;5107238;28;20501;-59
2023/08/24 05:51:52;;;;;;;11.80;5.70;;;16.40;99.90;;;;;;5107672;28;20086;-59
2023/08/24 05:54:18;;;;;;;15.45;6.10;;;16.50;99.90;;;;;;5090596;28;20494;-60
2023/08/24 05:56:45;;;;;;;10.95;5.60;;;16.50;99.90;;;;;;5105510;27;20783;-60
2023/08/24 05:59:10;;;;;;;13.60;5.55;;;16.50;99.90;;;;;;5106632;27;20031;-60
2023/08/24 06:01:39;;;;;;;12.70;5.85;;;16.60;99.90;;;;;;5089506;28;20087;-59
2023/08/24 06:04:05;;;;;;;10.63;4.93;;;16.60;99.90;;;;;;5095238;28;20039;-60
2023/08/24 06:06:31;;;;;;;12.50;5.80;;;16.60;99.90;;;;;;5106548;28;20569;-58
2023/08/24 06:08:57;;;;;;;14.95;5.80;;;16.70;99.90;;;;;;5078040;28;20043;-56
2023/08/24 06:11:23;;;;;;;14.93;6.10;;;16.70;99.90;;;;;;5088649;28;20047;-61
2023/08/24 06:13:49;;;;;;;13.20;5.53;;;16.80;99.90;;;;;;5088269;28;20083;-59
2023/08/24 06:16:15;;;;;;;12.98;5.53;;;16.90;99.90;;;;;;5106052;28;20444;-60
2023/08/24 06:18:40;;;;;;;11.57;5.85;;;16.90;99.90;;;;;;5107111;28;20134;-60
2023/08/24 06:21:08;;;;;;;9.23;5.38;;;17.00;99.90;;;;;;5105934;28;20172;-58
2023/08/24 06:23:34;;;;;;;11.00;4.82;;;17.10;99.90;;;;;;5105657;28;20039;-60
2023/08/24 06:26:01;;;;;;;9.35;4.70;;;17.20;99.90;;;;;;5105726;28;20095;-61
2023/08/24 06:28:27;;;;;;;9.30;4.70;;;17.20;99.90;;;;;;5108156;28;20040;-60
2023/08/24 06:30:55;;;;;;;8.10;3.92;;;17.20;99.90;;;;;;5104427;28;20046;-60
2023/08/24 06:33:21;;;;;;;7.72;3.80;;;17.30;99.90;;;;;;5106314;28;20031;-61
2023/08/24 06:35:47;;;;;;;12.88;3.88;;;17.30;99.90;;;;;;5105790;27;20043;-58
2023/08/24 06:38:13;;;;;;;10.40;3.50;;;17.30;99.90;;;;;;5108725;28;20520;-61
2023/08/24 06:40:39;;;;;;;9.13;4.03;;;17.30;99.90;;;;;;5106901;27;20043;-60
2023/08/24 06:43:05;;;;;;;8.07;3.65;;;17.40;99.90;;;;;;5106492;28;20042;-60
2023/08/24 06:45:31;;;;;;;7.80;3.42;;;17.40;99.90;;;;;;5105192;28;20475;-60
2023/08/24 06:47:57;;;;;;;10.07;3.63;;;17.50;99.90;;;;;;5105444;28;20043;-60
2023/08/24 06:50:22;;;;;;;11.38;3.60;;;17.50;99.90;;;;;;5108005;28;20093;-61
2023/08/24 06:52:48;;;;;;;10.57;3.58;;;17.50;99.90;;;;;;5106626;28;21320;-59
2023/08/24 06:55:14;;;;;;;9.20;3.42;;;17.60;99.90;;;;;;5101174;28;20112;-60
2023/08/24 06:57:40;;;;;;;12.20;3.58;;;17.70;99.90;;;;;;5103675;27;20036;-60
2023/08/24 07:00:08;;;;;;;9.38;3.47;;;17.70;99.90;;;;;;5102311;28;20050;-60
2023/08/24 07:02:35;;;;;;;6.15;3.72;;;17.80;99.90;;;;;;5104337;28;20036;-60
2023/08/24 07:05:04;;;;;;;9.40;3.03;;;17.80;99.90;;;;;;5102939;28;20039;-58
2023/08/24 07:07:30;;;;;;;10.68;3.38;;;17.90;99.90;;;;;;5084768;28;20047;-61
2023/08/24 07:09:56;;;;;;;10.68;3.42;;;18.00;99.90;;;;;;5083507;28;20043;-60
2023/08/24 07:12:22;;;;;;;6.63;3.38;;;18.00;99.90;;;;;;5101065;28;20032;-60
2023/08/24 07:14:47;;;;;;;10.98;3.55;;;18.10;99.90;;;;;;5100602;28;20039;-58
2023/08/24 07:17:13;;;;;;;11.18;3.78;;;18.20;99.90;;;;;;5103631;28;20063;-60
2023/08/24 07:19:39;;;;;;;12.25;4.53;;;18.20;99.90;;;;;;5101038;28;20130;-61
2023/08/24 07:22:04;;;;;;;8.50;4.10;;;18.30;99.90;;;;;;5084287;28;20437;-60
2023/08/24 07:24:30;;;;;;;9.02;4.50;;;18.40;99.90;;;;;;5099519;28;20039;-60
2023/08/24 07:26:56;;;;;;;9.68;4.18;;;18.50;99.90;;;;;;5082527;28;20036;-59
2023/08/24 07:29:21;;;;;;;9.10;4.43;;;18.60;99.90;;;;;;5104040;28;20342;-60
2023/08/24 07:31:47;;;;;;;10.85;4.38;;;18.70;99.90;;;;;;5072761;28;20036;-61
2023/08/24 07:34:14;;;;;;;6.57;3.97;;;18.80;99.90;;;;;;5082593;28;20088;-59
2023/08/24 07:36:40;;;;;;;9.07;4.60;;;19.00;99.90;;;;;;5099921;28;20046;-61
2023/08/24 07:39:06;;;;;;;10.68;4.40;;;19.00;99.90;;;;;;5099777;28;20527;-59
2023/08/24 07:41:31;;;;;;;8.02;4.20;;;19.10;99.90;;;;;;5100738;28;20034;-58
2023/08/24 07:43:58;;;;;;;9.38;4.40;;;19.30;99.90;;;;;;5098043;28;20074;-58
2023/08/24 07:46:24;;;;;;;8.30;3.90;;;19.40;99.90;;;;;;5099635;28;20047;-61
2023/08/24 07:48:50;;;;;;;13.30;4.43;;;19.60;99.90;;;;;;5098954;28;20109;-60
2023/08/24 07:51:16;;;;;;;5.65;3.55;;;19.70;99.90;;;;;;5099594;28;20106;-60
2023/08/24 07:53:41;;;;;;;12.90;4.47;;;19.80;99.90;;;;;;5089457;28;20554;-60
2023/08/24 07:56:07;;;;;;;9.73;3.55;;;19.90;99.90;;;;;;5080267;28;20043;-60
2023/08/24 07:58:33;;;;;;;9.77;4.13;;;20.00;99.90;;;;;;5060295;28;20535;-61
2023/08/24 08:01:00;;;;;;;8.88;3.65;;;20.20;99.90;;;;;;5078965;28;20036;-60
2023/08/24 08:03:26;;;;;;;5.90;3.78;;;20.30;99.90;;;;;;5078087;28;20036;-60
2023/08/24 08:05:51;;;;;;;9.95;4.05;;;20.40;99.90;;;;;;5080468;28;20063;-57
2023/08/24 08:08:17;;;;;;;9.93;4.65;;;20.60;99.90;;;;;;5061381;28;20043;-60
2023/08/24 08:10:43;;;;;;;6.18;4.25;;;20.60;99.90;;;;;;5079037;28;20040;-58
2023/08/24 08:13:12;;;;;;;14.63;4.85;;;20.70;99.90;;;;;;5060002;28;20040;-60
2023/08/24 08:15:38;;;;;;;9.43;4.57;;;20.80;99.90;;;;;;5076623;28;20080;-60
2023/08/24 08:18:04;;;;;;;12.23;3.90;;;20.90;99.90;;;;;;5078383;28;20569;-61
2023/08/24 08:20:31;;;;;;;8.65;4.72;;;21.00;99.90;;;;;;5080643;28;20028;-60
2023/08/24 08:22:57;;;;;;;7.68;3.95;;;21.10;99.90;;;;;;5079624;28;20130;-60
2023/08/24 08:25:23;;;;;;;6.97;4.38;;;21.20;99.90;;;;;;5080538;28;20121;-60
2023/08/24 08:27:49;;;;;;;10.45;5.20;;;21.30;99.90;;;;;;5079412;28;20491;-61
2023/08/24 08:30:16;;;;;;;8.77;4.80;;;21.40;99.90;;;;;;5079674;28;20616;-60
2023/08/24 08:32:41;;;;;;;10.25;5.20;;;21.50;99.90;;;;;;5080390;28;20044;-60
2023/08/24 08:35:08;;;;;;;9.23;4.50;;;21.60;99.90;;;;;;5079352;28;20041;-60
2023/08/24 08:37:35;;;;;;;8.73;4.93;;;21.70;99.90;;;;;;5080181;28;20067;-60
2023/08/24 08:40:05;;;;;;;9.00;5.03;;;21.80;99.90;;;;;;5079107;28;20044;-60
2023/08/24 08:42:33;;;;;;;10.68;4.47;;;21.90;99.90;;;;;;5079419;28;20091;-61
2023/08/24 08:45:03;;;;;;;6.85;4.25;;;22.00;99.90;;;;;;5062966;28;20115;-59
2023/08/24 08:47:29;;;;;;;10.10;4.80;;;22.10;99.90;;;;;;5080944;28;20817;-61
2023/08/24 08:49:55;;;;;;;10.23;5.03;;;22.20;99.90;;;;;;5079097;28;20037;-60
2023/08/24 08:52:21;;;;;;;8.93;4.32;;;22.30;99.90;;;;;;5078704;28;20051;-61
2023/08/24 08:54:46;;;;;;;7.60;3.90;;;22.40;99.90;;;;;;5081268;28;20052;-58
2023/08/24 08:57:14;;;;;;;11.25;4.78;;;22.60;99.90;;;;;;5101127;28;20050;-61
2023/08/24 08:59:41;;;;;;;9.23;3.92;;;22.70;99.90;;;;;;5100929;28;20375;-60
2023/08/24 09:02:13;;;;;;;10.20;4.20;;;22.70;99.90;;;;;;5083253;28;20039;-60
2023/08/24 09:04:39;;;;;;;5.82;3.78;;;22.70;99.90;;;;;;5101985;28;20036;-61
2023/08/24 09:07:10;;;;;;;9.98;4.63;;;22.70;99.90;;;;;;5101473;28;20043;-60
2023/08/24 09:09:37;;;;;;;7.60;4.35;;;22.60;99.90;;;;;;5100745;28;20604;-60
2023/08/24 09:12:05;;;;;;;7.25;3.88;;;22.70;99.90;;;;;;5101377;28;20043;-59
2023/08/24 09:14:31;;;;;;;9.18;3.90;;;22.70;99.90;;;;;;5103690;28;21077;-61
2023/08/24 09:16:56;;;;;;;11.27;4.13;;;22.80;99.90;;;;;;5102353;28;20050;-59
2023/08/24 09:19:30;;;;;;;10.48;4.35;;;22.90;99.90;;;;;;5102946;28;20035;-61
2023/08/24 09:22:01;;;;;;;4.93;3.55;;;23.10;99.90;;;;;;5102978;28;20047;-61
2023/08/24 09:24:34;;;;;;;12.70;4.07;;;23.20;99.90;;;;;;5100622;28;20069;-59
2023/08/24 09:27:05;;;;;;;7.13;3.88;;;23.40;99.90;;;;;;5097701;28;20585;-57
2023/08/24 09:29:37;;;;;;;6.80;4.05;;;23.50;99.90;;;;;;5093073;28;20124;-58
2023/08/24 09:32:03;;;;;;;8.80;4.30;;;23.50;99.90;;;;;;5093083;28;20666;-56
2023/08/24 09:34:30;;;;;;;10.93;4.35;;;23.60;99.90;;;;;;5093933;28;20111;-58
2023/08/24 09:36:57;;;;;;;10.73;5.18;;;23.60;99.90;;;;;;5093513;28;20051;-57
2023/08/24 09:39:22;;;;;;;7.40;4.22;;;23.60;99.90;;;;;;5094034;28;20044;-59
2023/08/24 09:41:50;;;;;;;11.77;5.00;;;23.50;99.90;;;;;;5082808;28;20044;-57
2023/08/24 09:44:19;;;;;;;8.63;4.70;;;23.50;99.90;;;;;;5080836;28;20039;-58
2023/08/24 09:46:44;;;;;;;9.98;4.40;;;23.40;99.90;;;;;;5093304;28;20509;-57
2023/08/24 09:49:11;;;;;;;11.32;4.40;;;23.40;99.90;;;;;;5090496;28;20070;-57
2023/08/24 09:51:39;;;;;;;9.60;4.57;;;23.40;99.90;;;;;;5092980;28;20059;-56
2023/08/24 09:54:09;;;;;;;7.00;4.03;;;23.40;99.90;;;;;;5094080;28;20051;-56
2023/08/24 09:56:38;;;;;;;6.78;4.38;;;23.30;99.90;;;;;;5094096;28;20084;-57
2023/08/24 09:59:24;;;;;;;9.23;4.30;;;23.40;99.90;;;;;;5093806;28;20630;-58
2023/08/24 10:01:54;;;;;;;11.05;4.65;;;23.40;99.90;;;;;;5094527;28;20046;-57
2023/08/24 10:04:24;;;;;;;7.38;4.25;;;23.40;99.90;;;;;;5075397;28;20043;-58
2023/08/24 10:06:58;;;;;;;7.55;4.68;;;23.40;99.90;;;;;;5095320;28;20065;-57
2023/08/24 10:09:35;;;;;;;14.18;4.90;;;23.30;99.90;;;;;;5074847;28;20047;-58
2023/08/24 10:12:05;;;;;;;10.18;4.38;;;23.30;99.90;;;;;;5094883;28;20047;-57
2023/08/24 10:14:32;;;;;;;8.88;4.80;;;23.20;99.90;;;;;;5093297;28;20070;-57
2023/08/24 10:16:58;;;;;;;10.68;4.88;;;23.20;99.90;;;;;;5092807;28;20618;-57
2023/08/24 10:19:25;;;;;;;11.45;5.20;;;23.10;99.90;;;;;;5092879;28;20035;-57
2023/08/24 10:21:53;;;;;;;9.45;5.35;;;23.10;99.90;;;;;;5075207;28;20517;-57
2023/08/24 10:24:23;;;;;;;10.75;4.93;;;23.00;99.90;;;;;;5093483;28;20051;-56
2023/08/24 10:26:50;;;;;;;7.20;4.50;;;23.00;99.90;;;;;;5082781;28;20105;-57
2023/08/24 10:29:17;;;;;;;14.23;4.75;;;22.90;99.90;;;;;;5079043;27;20051;-57
2023/08/24 10:31:43;;;;;;;11.13;5.20;;;22.90;99.90;;;;;;5095556;27;20146;-58
2023/08/24 10:34:10;;;;;;;12.00;4.95;;;22.90;99.90;;;;;;5097498;27;20058;-59
2023/08/24 10:36:41;;;;;;;12.60;5.43;;;22.90;99.90;;;;;;5095413;27;21483;-58
2023/08/24 10:39:07;;;;;;;11.02;5.65;;;22.90;99.90;;;;;;5097422;28;20073;-58
2023/08/24 10:41:50;;;;;;;12.05;5.10;;;22.80;99.90;;;;;;5095295;28;20522;-58
2023/08/24 10:44:36;;;;;;;6.93;5.03;;;22.80;99.90;;;;;;5097804;27;20043;-58
2023/08/24 10:47:06;;;;;;;9.20;5.47;;;22.70;99.90;;;;;;5096656;27;20048;-58
2023/08/24 10:49:32;;;;;;;12.35;5.53;;;22.70;99.90;;;;;;5096961;28;20052;-58
2023/08/24 10:52:15;;;;;;;12.80;5.70;;;22.70;99.90;;;;;;5097776;27;20461;-57
2023/08/24 10:54:48;;;;;;;7.85;5.65;;;22.70;99.90;;;;;;5080561;28;20060;-57
2023/08/24 10:57:34;;;;;;;10.88;6.20;;;22.60;99.90;;;;;;5097022;28;20134;-57
2023/08/24 11:00:06;;;;;;;15.43;6.68;;;22.60;99.90;;;;;;5079378;28;20622;-57
2023/08/24 11:02:45;;;;;;;9.48;6.57;;;22.50;99.90;;;;;;5096170;27;20390;-57
2023/08/24 11:05:27;;;;;;;12.98;6.70;;;22.50;99.90;;;;;;5097302;27;20044;-58
2023/08/24 11:07:59;;;;;;;13.65;6.95;;;22.50;99.90;;;;;;5078797;28;20044;-57
2023/08/24 11:10:31;;;;;;;12.35;6.38;;;22.40;99.90;;;;;;5096380;28;20565;-57
2023/08/24 11:13:07;;;;;;;13.55;7.68;;;22.50;99.90;;;;;;5095439;27;20921;-58
2023/08/24 11:15:47;;;;;;;10.07;6.55;;;22.40;99.90;;;;;;5095633;28;20103;-57
2023/08/24 11:18:27;;;;;;;12.45;6.60;;;22.40;99.90;;;;;;5097433;27;20093;-57
2023/08/24 11:21:00;;;;;;;12.48;6.80;;;22.40;99.90;;;;;;5096346;28;20066;-58
2023/08/24 11:23:26;;;;;;;15.15;6.78;;;22.40;99.90;;;;;;5080241;28;20036;-57
2023/08/24 11:25:57;;;;;;;10.20;6.93;;;22.40;99.90;;;;;;5096546;27;20119;-57
2023/08/24 11:28:25;;;;;;;11.45;6.93;;;22.40;99.90;;;;;;5096762;28;20451;-58
2023/08/24 11:30:51;;;;;;;12.77;6.80;;;22.40;99.90;;;;;;5094375;28;20046;-57
2023/08/24 11:33:28;;;;;;;13.27;6.72;;;22.30;99.90;;;;;;5098030;27;20036;-59
2023/08/24 11:35:54;;;;;;;10.65;6.38;;;22.40;99.90;;;;;;5097725;27;20055;-57
2023/08/24 11:38:20;;;;;;;9.13;6.57;;;22.40;99.90;;;;;;5096848;27;20485;-58
2023/08/24 11:40:45;;;;;;;10.45;6.82;;;22.40;99.90;;;;;;5096474;28;20489;-58
2023/08/24 11:43:11;;;;;;;13.90;6.68;;;22.40;99.90;;;;;;5097193;28;20036;-57
2023/08/24 11:45:38;;;;;;;10.98;6.82;;;22.50;99.90;;;;;;5094375;28;20126;-58
2023/08/24 11:48:04;;;;;;;11.60;7.20;;;22.50;99.90;;;;;;5097610;27;20115;-57
2023/08/24 11:50:32;;;;;;;13.68;6.95;;;22.60;99.90;;;;;;5095828;27;20127;-58
2023/08/24 11:52:57;;;;;;;12.27;7.28;;;22.70;99.90;;;;;;5077565;28;20039;-58
2023/08/24 11:55:24;;;;;;;13.05;6.72;;;22.70;99.90;;;;;;5096236;27;20108;-56
2023/08/24 11:57:50;;;;;;;11.13;7.53;;;22.80;99.90;;;;;;5096535;27;20398;-57
2023/08/24 12:00:19;;;;;;;13.18;6.97;;;22.90;99.90;;;;;;5096724;28;20076;-56
2023/08/24 12:02:46;;;;;;;13.90;6.70;;;22.90;99.90;;;;;;5067798;27;20075;-57
2023/08/24 12:05:22;;;;;;;12.45;6.65;;;22.90;99.90;;;;;;5096375;27;20040;-58
2023/08/24 12:07:48;;;;;;;9.40;6.93;;;23.00;99.90;;;;;;5096144;27;20047;-57
2023/08/24 12:10:14;;;;;;;10.02;7.25;;;23.00;99.90;;;;;;5095873;28;20031;-57
2023/08/24 12:12:40;;;;;;;11.60;6.60;;;23.00;99.90;;;;;;5076615;28;20453;-58
2023/08/24 12:15:06;;;;;;;10.45;6.50;;;23.10;99.90;;;;;;5096109;28;20036;-57
2023/08/24 12:17:43;;;;;;;11.02;6.82;;;23.10;99.90;;;;;;5095354;28;20031;-57
2023/08/24 12:20:21;;;;;;;13.15;7.00;;;23.10;99.90;;;;;;5097301;28;20039;-56
2023/08/24 12:22:54;;;;;;;13.05;7.10;;;23.10;99.90;;;;;;5076593;28;20039;-57
2023/08/24 12:25:24;;;;;;;14.82;7.38;;;23.10;99.90;;;;;;5095250;27;20478;-58
2023/08/24 12:28:08;;;;;;;11.18;6.68;;;23.10;99.90;;;;;;5096542;27;20683;-56
2023/08/24 12:30:47;;;;;;;12.32;6.82;;;23.10;99.90;;;;;;5095985;28;20466;-58
2023/08/24 12:33:26;;;;;;;9.93;6.65;;;23.10;99.90;;;;;;5095280;27;20176;-57
2023/08/24 12:35:53;;;;;;;12.63;7.35;;;23.20;99.90;;;;;;5077364;27;20043;-57
2023/08/24 12:38:19;;;;;;;12.07;6.22;;;23.20;99.90;;;;;;5092999;28;20128;-57
2023/08/24 12:40:45;;;;;;;10.45;6.10;;;23.20;99.90;;;;;;5094094;28;20118;-59
2023/08/24 12:43:11;;;;;;;14.93;7.05;;;23.20;99.90;;;;;;5096036;27;20122;-57
2023/08/24 12:45:37;;;;;;;13.13;7.43;;;23.30;99.90;;;;;;5093822;28;20044;-57